Time;durP1;ratioP1;P1;durP2;ratioP2;P2;SDS_P1;SDS_P2;PMS_P1;PMS_P2;Temp;Humidity;BMP_temperature;BMP_pressure;BME280_temperature;BME280_humidity;BME280_pressure;Samples;Min_cycle;Max_cycle;Signal;HPM_P1;HPM_P2
2020/12/07 00:00:20;;;;;;;41.10;23.83;;;;;;;;;;5043421;28;20202;-73
2020/12/07 00:02:45;;;;;;;46.13;24.70;;;;;;;;;;5044106;28;20301;-73
2020/12/07 00:05:11;;;;;;;43.90;25.13;;;;;;;;;;5044806;28;20298;-73
2020/12/07 00:07:36;;;;;;;37.73;23.53;;;;;;;;;;5038849;28;20228;-73
2020/12/07 00:10:03;;;;;;;42.20;24.20;;;;;;;;;;5040415;28;20184;-73
2020/12/07 00:12:29;;;;;;;39.37;24.07;;;;;;;;;;5041899;28;20296;-73
2020/12/07 00:14:54;;;;;;;37.13;23.07;;;;;;;;;;5043047;28;20273;-73
2020/12/07 00:17:20;;;;;;;37.03;22.87;;;;;;;;;;5042381;28;20260;-77
2020/12/07 00:19:45;;;;;;;37.47;24.70;;;;;;;;;;5040624;28;20568;-73
2020/12/07 00:22:10;;;;;;;33.80;22.80;;;;;;;;;;5041903;28;20244;-73
2020/12/07 00:24:35;;;;;;;35.20;22.73;;;;;;;;;;5036104;28;20553;-73
2020/12/07 00:27:00;;;;;;;42.10;22.60;;;;;;;;;;5040390;28;20173;-73
2020/12/07 00:29:25;;;;;;;37.27;22.27;;;;;;;;;;5041060;28;20239;-73
2020/12/07 00:31:51;;;;;;;33.13;21.67;;;;;;;;;;5038903;28;20244;-73
2020/12/07 00:34:18;;;;;;;35.37;21.37;;;;;;;;;;5040274;28;20235;-73
2020/12/07 00:36:43;;;;;;;32.03;20.50;;;;;;;;;;5039626;28;20178;-73
2020/12/07 00:39:09;;;;;;;34.50;20.90;;;;;;;;;;5041732;28;20194;-73
2020/12/07 00:41:34;;;;;;;32.80;21.20;;;;;;;;;;5041562;28;20256;-73
2020/12/07 00:43:59;;;;;;;34.90;21.83;;;;;;;;;;5036982;28;21846;-73
2020/12/07 00:46:24;;;;;;;32.03;21.23;;;;;;;;;;5038998;28;20253;-73
2020/12/07 00:48:49;;;;;;;33.77;20.40;;;;;;;;;;5040997;28;20194;-73
2020/12/07 00:51:17;;;;;;;30.93;20.07;;;;;;;;;;5040715;28;20190;-73
2020/12/07 00:53:42;;;;;;;34.17;20.53;;;;;;;;;;5045932;28;20210;-73
2020/12/07 00:56:11;;;;;;;32.00;21.07;;;;;;;;;;5037525;28;20544;-73
2020/12/07 00:58:36;;;;;;;30.83;20.47;;;;;;;;;;5048507;28;20693;-73
2020/12/07 01:01:01;;;;;;;27.43;19.47;;;;;;;;;;5045074;28;20205;-73
2020/12/07 01:03:27;;;;;;;31.93;19.30;;;;;;;;;;5039288;28;20201;-73
2020/12/07 01:05:53;;;;;;;32.67;19.70;;;;;;;;;;5037539;28;20179;-73
2020/12/07 01:08:18;;;;;;;31.13;18.50;;;;;;;;;;5041337;28;20213;-73
2020/12/07 01:10:43;;;;;;;26.40;17.93;;;;;;;;;;5040858;28;20589;-73
2020/12/07 01:13:08;;;;;;;28.43;18.77;;;;;;;;;;5042189;28;20205;-73
2020/12/07 01:15:33;;;;;;;28.80;19.03;;;;;;;;;;5045240;28;20174;-73
2020/12/07 01:17:59;;;;;;;27.47;17.13;;;;;;;;;;5047101;28;20217;-73
2020/12/07 01:20:24;;;;;;;23.03;17.27;;;;;;;;;;5048897;28;20208;-73
2020/12/07 01:22:49;;;;;;;26.13;18.53;;;;;;;;;;5045138;28;20268;-73
2020/12/07 01:25:14;;;;;;;27.37;18.43;;;;;;;;;;5048394;28;20201;-73
2020/12/07 01:27:40;;;;;;;26.87;18.20;;;;;;;;;;5043303;28;20227;-73
2020/12/07 01:30:05;;;;;;;25.47;18.50;;;;;;;;;;5046116;28;20193;-73
2020/12/07 01:32:30;;;;;;;26.53;18.70;;;;;;;;;;5048631;28;20209;-73
2020/12/07 01:34:55;;;;;;;27.67;19.57;;;;;;;;;;5039578;28;20193;-73
2020/12/07 01:37:20;;;;;;;28.17;19.00;;;;;;;;;;5041456;28;20178;-73
2020/12/07 01:39:45;;;;;;;28.67;18.90;;;;;;;;;;5045609;28;20284;-73
2020/12/07 01:42:11;;;;;;;26.17;16.70;;;;;;;;;;5039425;28;20607;-73
2020/12/07 01:44:36;;;;;;;29.20;18.60;;;;;;;;;;5038720;28;20186;-73
2020/12/07 01:47:05;;;;;;;29.10;18.17;;;;;;;;;;5041430;28;20185;-73
2020/12/07 01:49:30;;;;;;;26.07;17.90;;;;;;;;;;5036539;28;20685;-73
2020/12/07 01:51:56;;;;;;;29.63;18.57;;;;;;;;;;5037863;28;20208;-73
2020/12/07 01:54:21;;;;;;;24.13;17.03;;;;;;;;;;5041632;28;20178;-73
2020/12/07 01:56:46;;;;;;;26.53;19.13;;;;;;;;;;5039550;28;20174;-73
2020/12/07 01:59:12;;;;;;;26.27;17.10;;;;;;;;;;5039252;28;20254;-73
2020/12/07 02:01:37;;;;;;;25.73;17.40;;;;;;;;;;5044357;28;20196;-73
2020/12/07 02:04:02;;;;;;;24.73;16.93;;;;;;;;;;5039759;28;20212;-73
2020/12/07 02:06:27;;;;;;;28.80;18.33;;;;;;;;;;5037833;28;20177;-73
2020/12/07 02:08:52;;;;;;;26.53;18.33;;;;;;;;;;5045357;28;20231;-73
2020/12/07 02:11:19;;;;;;;26.73;17.90;;;;;;;;;;5045807;28;20639;-73
2020/12/07 02:13:45;;;;;;;27.83;18.13;;;;;;;;;;5034749;28;20221;-73
2020/12/07 02:16:10;;;;;;;24.03;16.83;;;;;;;;;;5042874;28;20197;-73
2020/12/07 02:18:35;;;;;;;22.53;16.47;;;;;;;;;;5046283;28;20201;-73
2020/12/07 02:21:00;;;;;;;25.60;17.90;;;;;;;;;;5039272;28;20171;-73
2020/12/07 02:23:25;;;;;;;25.40;17.93;;;;;;;;;;5045159;28;20570;-74
2020/12/07 02:25:51;;;;;;;26.17;17.43;;;;;;;;;;5048039;28;20208;-73
2020/12/07 02:28:16;;;;;;;26.37;17.20;;;;;;;;;;5041409;28;20205;-73
2020/12/07 02:30:41;;;;;;;26.10;16.83;;;;;;;;;;5045099;28;20206;-73
2020/12/07 02:33:06;;;;;;;21.30;16.47;;;;;;;;;;5044541;28;20205;-73
2020/12/07 02:35:31;;;;;;;26.97;16.90;;;;;;;;;;5043478;28;20209;-73
2020/12/07 02:37:56;;;;;;;24.67;16.50;;;;;;;;;;5043339;28;20174;-73
2020/12/07 02:40:22;;;;;;;24.07;16.43;;;;;;;;;;5046734;28;20202;-73
2020/12/07 02:42:47;;;;;;;24.17;15.37;;;;;;;;;;5039775;28;20216;-73
2020/12/07 02:45:13;;;;;;;25.33;17.17;;;;;;;;;;5047970;28;20594;-73
2020/12/07 02:47:39;;;;;;;23.53;16.13;;;;;;;;;;5039814;28;20582;-73
2020/12/07 02:50:05;;;;;;;25.03;16.73;;;;;;;;;;5048828;28;20208;-73
2020/12/07 02:52:31;;;;;;;25.50;16.50;;;;;;;;;;5050327;28;20227;-73
2020/12/07 02:55:06;;;;;;;26.80;17.27;;;;;;;;;;5049123;28;20568;-74
2020/12/07 02:57:31;;;;;;;23.93;16.27;;;;;;;;;;5043446;28;20204;-74
2020/12/07 02:59:57;;;;;;;23.40;16.73;;;;;;;;;;5044582;28;20217;-74
2020/12/07 03:02:22;;;;;;;25.20;16.67;;;;;;;;;;5045178;28;20225;-74
2020/12/07 03:04:47;;;;;;;25.23;16.47;;;;;;;;;;5045238;28;20668;-74
2020/12/07 03:07:12;;;;;;;26.00;16.87;;;;;;;;;;5041385;28;20190;-74
2020/12/07 03:09:38;;;;;;;26.67;17.70;;;;;;;;;;5046528;28;20182;-74
2020/12/07 03:12:04;;;;;;;25.93;17.97;;;;;;;;;;5041673;28;20579;-74
2020/12/07 03:14:29;;;;;;;23.73;16.57;;;;;;;;;;5039900;28;20193;-73
2020/12/07 03:16:54;;;;;;;26.57;17.03;;;;;;;;;;5045510;28;20275;-74
2020/12/07 03:19:20;;;;;;;26.87;18.37;;;;;;;;;;5044754;28;20770;-73
2020/12/07 03:21:45;;;;;;;24.33;17.17;;;;;;;;;;5041640;28;20174;-74
2020/12/07 03:24:10;;;;;;;24.67;16.83;;;;;;;;;;5040400;28;20170;-74
2020/12/07 03:26:35;;;;;;;23.20;16.67;;;;;;;;;;5043786;28;20590;-74
2020/12/07 03:29:04;;;;;;;23.50;16.43;;;;;;;;;;5046050;28;20547;-74
2020/12/07 03:31:29;;;;;;;24.07;17.23;;;;;;;;;;5041862;28;20608;-73
2020/12/07 03:33:55;;;;;;;21.37;16.23;;;;;;;;;;5046101;28;20285;-74
2020/12/07 03:36:20;;;;;;;23.27;15.77;;;;;;;;;;5042486;28;20224;-74
2020/12/07 03:38:45;;;;;;;24.50;15.67;;;;;;;;;;5044409;28;20205;-74
2020/12/07 03:41:10;;;;;;;23.43;15.77;;;;;;;;;;5041426;28;20178;-74
2020/12/07 03:43:35;;;;;;;25.15;16.23;;;;;;;;;;5047488;28;20194;-74
2020/12/07 03:46:00;;;;;;;25.53;16.73;;;;;;;;;;5045685;28;20190;-74
2020/12/07 03:48:26;;;;;;;24.77;16.20;;;;;;;;;;5043707;28;20588;-73
2020/12/07 03:50:51;;;;;;;26.03;17.77;;;;;;;;;;5044817;28;20174;-73
2020/12/07 03:53:16;;;;;;;26.07;17.80;;;;;;;;;;5041508;28;20225;-73
2020/12/07 03:55:41;;;;;;;25.73;16.73;;;;;;;;;;5038706;28;20186;-73
2020/12/07 03:58:06;;;;;;;27.50;17.73;;;;;;;;;;5045136;28;20185;-74
2020/12/07 04:00:31;;;;;;;27.23;18.30;;;;;;;;;;5043647;28;20212;-73
2020/12/07 04:02:57;;;;;;;28.43;19.10;;;;;;;;;;5043672;28;20189;-73
2020/12/07 04:05:32;;;;;;;27.47;17.80;;;;;;;;;;5042985;28;20199;-74
2020/12/07 04:07:57;;;;;;;26.70;18.43;;;;;;;;;;5048139;28;20619;-73
2020/12/07 04:10:23;;;;;;;26.37;18.50;;;;;;;;;;5050182;28;20197;-73
2020/12/07 04:12:48;;;;;;;26.93;18.40;;;;;;;;;;5045223;28;20305;-73
2020/12/07 04:15:13;;;;;;;28.27;20.40;;;;;;;;;;5045307;28;20192;-74
2020/12/07 04:17:38;;;;;;;26.37;17.33;;;;;;;;;;5048764;28;20639;-74
2020/12/07 04:20:03;;;;;;;25.83;17.83;;;;;;;;;;5046304;28;20208;-73
2020/12/07 04:22:28;;;;;;;27.87;18.63;;;;;;;;;;5056250;28;20202;-73
2020/12/07 04:24:54;;;;;;;23.53;16.83;;;;;;;;;;5051724;28;20169;-74
2020/12/07 04:27:19;;;;;;;22.27;16.70;;;;;;;;;;5045645;28;20174;-73
2020/12/07 04:29:44;;;;;;;26.73;16.80;;;;;;;;;;5049816;28;20185;-74
2020/12/07 04:32:09;;;;;;;29.37;17.50;;;;;;;;;;5048811;28;20305;-73
2020/12/07 04:34:34;;;;;;;26.03;16.07;;;;;;;;;;5051342;28;20182;-73
2020/12/07 04:36:59;;;;;;;24.27;15.83;;;;;;;;;;5037170;28;20187;-73
2020/12/07 04:39:25;;;;;;;26.17;16.33;;;;;;;;;;5047718;28;20208;-73
2020/12/07 04:41:50;;;;;;;28.47;15.93;;;;;;;;;;5049566;28;20601;-73
2020/12/07 04:44:15;;;;;;;24.27;14.83;;;;;;;;;;5040659;28;20198;-73
2020/12/07 04:46:40;;;;;;;25.00;14.87;;;;;;;;;;5040664;28;20174;-73
2020/12/07 04:49:06;;;;;;;18.67;13.60;;;;;;;;;;5038553;28;20177;-73
2020/12/07 04:51:31;;;;;;;23.37;14.23;;;;;;;;;;5046246;28;20192;-73
2020/12/07 04:53:57;;;;;;;21.07;13.63;;;;;;;;;;5044058;28;20187;-73
2020/12/07 04:56:22;;;;;;;23.40;14.83;;;;;;;;;;5044997;28;20224;-73
2020/12/07 04:58:47;;;;;;;25.13;15.13;;;;;;;;;;5042740;28;20214;-74
2020/12/07 05:01:13;;;;;;;18.23;12.90;;;;;;;;;;5043919;28;20170;-73
2020/12/07 05:03:38;;;;;;;19.47;12.93;;;;;;;;;;5045635;28;20255;-73
2020/12/07 05:06:04;;;;;;;23.80;14.23;;;;;;;;;;5045174;28;20268;-73
2020/12/07 05:08:33;;;;;;;20.30;14.33;;;;;;;;;;5040090;28;20563;-73
2020/12/07 05:11:01;;;;;;;22.20;14.13;;;;;;;;;;5046887;28;20268;-73
2020/12/07 05:13:35;;;;;;;19.90;13.40;;;;;;;;;;5039778;28;20330;-73
2020/12/07 05:16:01;;;;;;;22.93;15.37;;;;;;;;;;5049449;28;20173;-74
2020/12/07 05:18:26;;;;;;;21.43;14.20;;;;;;;;;;5037459;28;20578;-74
2020/12/07 05:20:52;;;;;;;26.40;15.83;;;;;;;;;;5035697;28;20667;-73
2020/12/07 05:23:17;;;;;;;24.87;15.90;;;;;;;;;;5048540;28;20275;-74
2020/12/07 05:25:47;;;;;;;27.07;18.73;;;;;;;;;;5042198;28;20178;-74
2020/12/07 05:28:16;;;;;;;24.53;16.07;;;;;;;;;;5048158;28;20178;-74
2020/12/07 05:30:44;;;;;;;26.53;16.80;;;;;;;;;;5040815;28;20255;-74
2020/12/07 05:33:11;;;;;;;26.60;16.60;;;;;;;;;;5044115;28;20705;-74
2020/12/07 05:35:38;;;;;;;25.93;18.27;;;;;;;;;;5045014;28;20181;-74
2020/12/07 05:38:03;;;;;;;24.10;15.23;;;;;;;;;;5033725;28;20189;-74
2020/12/07 05:40:29;;;;;;;21.90;14.37;;;;;;;;;;5031224;28;20202;-74
2020/12/07 05:42:54;;;;;;;23.43;14.27;;;;;;;;;;5044688;28;20606;-74
2020/12/07 05:45:20;;;;;;;20.93;14.40;;;;;;;;;;5045005;28;20173;-74
2020/12/07 05:47:46;;;;;;;24.73;14.53;;;;;;;;;;5042282;28;20619;-74
2020/12/07 05:50:11;;;;;;;27.90;16.50;;;;;;;;;;5045362;28;20178;-73
2020/12/07 05:52:50;;;;;;;23.70;15.53;;;;;;;;;;5050014;28;20201;-74
2020/12/07 05:55:16;;;;;;;22.83;14.63;;;;;;;;;;5044002;28;20268;-74
2020/12/07 05:57:57;;;;;;;29.30;16.20;;;;;;;;;;5042065;28;20268;-74
2020/12/07 06:00:23;;;;;;;19.07;12.43;;;;;;;;;;5036422;28;20206;-74
2020/12/07 06:02:52;;;;;;;20.17;14.07;;;;;;;;;;5041712;28;20593;-74
2020/12/07 06:05:19;;;;;;;17.73;11.63;;;;;;;;;;5029000;28;20182;-74
2020/12/07 06:07:48;;;;;;;15.67;10.03;;;;;;;;;;5030652;28;20189;-74
2020/12/07 06:10:16;;;;;;;11.57;8.83;;;;;;;;;;5027791;28;21099;-75
2020/12/07 06:12:43;;;;;;;13.37;9.03;;;;;;;;;;5036019;28;20210;-74
2020/12/07 06:15:08;;;;;;;13.23;8.47;;;;;;;;;;5030290;28;20269;-74
2020/12/07 06:17:34;;;;;;;10.03;7.23;;;;;;;;;;5029677;28;20196;-74
2020/12/07 06:19:59;;;;;;;8.57;6.50;;;;;;;;;;5029685;28;20198;-74
2020/12/07 06:22:24;;;;;;;11.33;6.97;;;;;;;;;;5030694;28;20618;-74
2020/12/07 06:24:51;;;;;;;11.83;9.00;;;;;;;;;;5029902;28;20710;-74
2020/12/07 06:27:17;;;;;;;11.10;8.10;;;;;;;;;;5029617;28;20182;-74
2020/12/07 06:29:58;;;;;;;16.03;10.80;;;;;;;;;;5027819;28;20240;-74
2020/12/07 06:32:42;;;;;;;14.30;10.43;;;;;;;;;;5028566;28;20588;-74
2020/12/07 06:35:08;;;;;;;16.17;11.40;;;;;;;;;;5027016;28;20200;-74
2020/12/07 06:37:34;;;;;;;18.40;12.93;;;;;;;;;;5029416;28;20189;-74
2020/12/07 06:39:59;;;;;;;17.20;12.83;;;;;;;;;;5028025;28;20210;-74
2020/12/07 06:42:25;;;;;;;23.20;14.33;;;;;;;;;;5027457;28;20205;-75
2020/12/07 06:44:51;;;;;;;17.40;11.97;;;;;;;;;;5028055;28;20181;-73
2020/12/07 06:47:19;;;;;;;22.27;13.10;;;;;;;;;;5027454;28;20186;-75
2020/12/07 06:52:15;;;;;;;18.40;12.63;;;;;;;;;;5029574;28;20733;-74
2020/12/07 06:57:29;;;;;;;19.73;13.80;;;;;;;;;;5029858;28;20205;-72
2020/12/07 06:59:56;;;;;;;22.63;15.43;;;;;;;;;;5045531;28;20198;-72
2020/12/07 07:02:21;;;;;;;25.13;16.10;;;;;;;;;;5026657;28;20189;-72
2020/12/07 07:04:56;;;;;;;24.00;16.33;;;;;;;;;;5027943;28;20181;-72
2020/12/07 07:07:22;;;;;;;25.20;16.83;;;;;;;;;;5032784;28;20188;-73
2020/12/07 07:09:48;;;;;;;26.27;16.67;;;;;;;;;;5029274;28;20200;-72
2020/12/07 07:12:13;;;;;;;27.97;18.17;;;;;;;;;;5027134;28;20221;-73
2020/12/07 07:14:40;;;;;;;27.27;17.37;;;;;;;;;;5029447;28;20213;-72
2020/12/07 07:17:05;;;;;;;26.93;18.27;;;;;;;;;;5025769;28;20194;-72
2020/12/07 07:19:31;;;;;;;26.20;17.20;;;;;;;;;;5027023;28;20220;-73
2020/12/07 07:21:57;;;;;;;28.37;17.50;;;;;;;;;;5029483;28;20620;-73
2020/12/07 07:24:24;;;;;;;27.60;17.77;;;;;;;;;;5031887;28;20182;-75
2020/12/07 07:26:49;;;;;;;28.27;17.80;;;;;;;;;;5036731;28;20265;-73
2020/12/07 07:29:15;;;;;;;23.93;16.20;;;;;;;;;;5038033;28;20331;-73
2020/12/07 07:31:40;;;;;;;23.43;16.37;;;;;;;;;;5038812;28;20186;-73
2020/12/07 07:34:06;;;;;;;27.50;17.27;;;;;;;;;;5038584;28;20177;-73
2020/12/07 07:36:31;;;;;;;29.20;17.63;;;;;;;;;;5041586;28;20842;-73
2020/12/07 07:38:58;;;;;;;29.83;17.47;;;;;;;;;;5054992;28;20855;-74
2020/12/07 07:41:23;;;;;;;30.27;18.97;;;;;;;;;;5033024;28;20197;-73
2020/12/07 07:43:49;;;;;;;29.33;18.17;;;;;;;;;;5031071;28;20212;-73
2020/12/07 07:46:14;;;;;;;25.73;17.57;;;;;;;;;;5030886;28;20320;-73
2020/12/07 07:48:55;;;;;;;32.03;19.47;;;;;;;;;;5033983;28;20559;-73
2020/12/07 07:54:30;;;;;;;26.23;16.93;;;;;;;;;;5032609;28;21820;-73
2020/12/07 08:16:15;;;;;;;24.30;14.97;;;;;;;;;;5031009;28;20759;-74
2020/12/07 08:18:42;;;;;;;19.17;12.60;;;;;;;;;;5031547;28;20193;-73
2020/12/07 08:21:08;;;;;;;19.57;13.67;;;;;;;;;;5041637;28;20188;-73
2020/12/07 08:23:34;;;;;;;20.33;12.37;;;;;;;;;;5041293;28;20206;-73
2020/12/07 08:26:01;;;;;;;20.30;12.53;;;;;;;;;;5030704;28;20831;-73
2020/12/07 08:28:33;;;;;;;17.90;11.67;;;;;;;;;;5047309;28;20178;-73
2020/12/07 08:31:09;;;;;;;17.67;11.60;;;;;;;;;;5029271;28;20268;-73
2020/12/07 08:33:35;;;;;;;17.50;11.53;;;;;;;;;;5028815;28;20189;-73
2020/12/07 08:36:01;;;;;;;17.70;11.13;;;;;;;;;;5029559;28;20659;-73
2020/12/07 08:38:53;;;;;;;18.80;11.50;;;;;;;;;;5032669;28;21160;-73
2020/12/07 08:41:20;;;;;;;13.83;9.80;;;;;;;;;;5030857;28;20187;-73
2020/12/07 08:43:46;;;;;;;14.90;10.57;;;;;;;;;;5029998;28;20225;-73
2020/12/07 08:46:13;;;;;;;19.43;10.63;;;;;;;;;;5044686;28;20174;-73
2020/12/07 08:48:39;;;;;;;14.63;9.20;;;;;;;;;;5033391;28;20197;-73
2020/12/07 08:51:04;;;;;;;14.33;9.70;;;;;;;;;;5028733;28;20189;-74
2020/12/07 08:53:29;;;;;;;16.27;10.37;;;;;;;;;;5031282;28;20278;-73
2020/12/07 08:55:54;;;;;;;11.47;8.97;;;;;;;;;;5027889;28;20205;-74
2020/12/07 08:58:20;;;;;;;13.73;10.30;;;;;;;;;;5032112;28;20177;-73
2020/12/07 09:00:45;;;;;;;17.07;10.63;;;;;;;;;;5033250;28;20217;-73
2020/12/07 09:03:10;;;;;;;15.17;10.57;;;;;;;;;;5030593;28;20236;-73
2020/12/07 09:05:37;;;;;;;17.50;12.67;;;;;;;;;;5028245;28;20957;-74
2020/12/07 09:08:03;;;;;;;17.97;14.43;;;;;;;;;;5033254;28;20269;-74
2020/12/07 09:10:28;;;;;;;18.53;15.00;;;;;;;;;;5029121;28;20211;-74
2020/12/07 09:12:53;;;;;;;17.83;14.18;;;;;;;;;;5032483;28;21365;-74
2020/12/07 09:15:18;;;;;;;18.90;14.37;;;;;;;;;;5047229;28;20280;-73
2020/12/07 09:17:43;;;;;;;18.30;14.43;;;;;;;;;;5034562;28;20214;-73
2020/12/07 09:20:09;;;;;;;17.87;14.10;;;;;;;;;;5027661;28;20189;-73
2020/12/07 09:22:34;;;;;;;17.90;14.40;;;;;;;;;;5027850;28;20325;-75
2020/12/07 09:24:59;;;;;;;17.93;14.17;;;;;;;;;;5029345;28;20205;-73
2020/12/07 09:27:24;;;;;;;20.77;15.20;;;;;;;;;;5033529;28;20180;-73
2020/12/07 09:29:49;;;;;;;18.57;14.60;;;;;;;;;;5030977;28;20178;-73
2020/12/07 09:32:15;;;;;;;18.93;14.67;;;;;;;;;;5025588;28;20256;-73
2020/12/07 09:34:40;;;;;;;20.17;15.50;;;;;;;;;;5024931;28;20670;-73
2020/12/07 09:37:05;;;;;;;23.60;15.43;;;;;;;;;;5027621;28;20227;-74
2020/12/07 09:39:30;;;;;;;19.43;15.60;;;;;;;;;;5029910;28;20244;-73
2020/12/07 09:41:56;;;;;;;20.67;15.73;;;;;;;;;;5028862;28;20202;-74
2020/12/07 09:44:21;;;;;;;20.23;16.47;;;;;;;;;;5028653;28;20647;-74
2020/12/07 09:46:46;;;;;;;22.67;15.53;;;;;;;;;;5027456;28;20686;-74
2020/12/07 09:49:11;;;;;;;23.00;15.83;;;;;;;;;;5026711;28;21006;-73
2020/12/07 09:51:36;;;;;;;21.00;15.77;;;;;;;;;;5028954;28;20260;-73
2020/12/07 09:54:02;;;;;;;21.30;16.63;;;;;;;;;;5027267;28;20182;-73
2020/12/07 09:56:30;;;;;;;22.37;16.47;;;;;;;;;;5030439;28;20652;-75
2020/12/07 09:58:56;;;;;;;22.07;15.73;;;;;;;;;;5029426;28;20614;-73
2020/12/07 10:01:21;;;;;;;23.60;17.60;;;;;;;;;;5041446;28;20182;-73
2020/12/07 10:03:46;;;;;;;25.67;18.77;;;;;;;;;;5027832;28;20733;-73
2020/12/07 10:06:12;;;;;;;21.63;17.00;;;;;;;;;;5025356;28;20182;-74
2020/12/07 10:08:37;;;;;;;25.57;18.83;;;;;;;;;;5030827;28;20570;-74
2020/12/07 10:11:02;;;;;;;24.47;17.67;;;;;;;;;;5030946;28;20174;-73
2020/12/07 10:13:27;;;;;;;28.17;19.03;;;;;;;;;;5028332;28;20554;-74
2020/12/07 10:15:52;;;;;;;27.73;20.33;;;;;;;;;;5028561;28;20210;-74
2020/12/07 10:18:18;;;;;;;26.23;20.23;;;;;;;;;;5029197;28;20189;-74
2020/12/07 10:20:43;;;;;;;26.73;19.57;;;;;;;;;;5029559;28;20209;-73
2020/12/07 10:23:08;;;;;;;29.07;21.20;;;;;;;;;;5027688;28;20202;-74
2020/12/07 10:25:33;;;;;;;30.60;21.83;;;;;;;;;;5029929;28;20209;-74
2020/12/07 10:27:59;;;;;;;30.27;21.77;;;;;;;;;;5029723;28;20268;-74
2020/12/07 10:30:24;;;;;;;48.07;23.90;;;;;;;;;;5027010;28;20185;-74
2020/12/07 10:32:49;;;;;;;76.50;25.80;;;;;;;;;;5032312;28;20205;-75
2020/12/07 10:35:15;;;;;;;28.03;21.23;;;;;;;;;;5025500;28;20196;-74
2020/12/07 10:37:40;;;;;;;32.53;22.57;;;;;;;;;;5029396;28;20182;-74
2020/12/07 10:40:05;;;;;;;128.50;35.87;;;;;;;;;;5031019;28;20267;-74
2020/12/07 10:42:30;;;;;;;37.87;23.50;;;;;;;;;;5030159;28;20320;-74
2020/12/07 10:44:55;;;;;;;50.20;24.90;;;;;;;;;;5027566;28;20181;-74
2020/12/07 10:47:20;;;;;;;39.43;23.40;;;;;;;;;;5027617;28;21665;-74
2020/12/07 10:49:46;;;;;;;33.30;23.43;;;;;;;;;;5025477;28;20189;-74
2020/12/07 10:52:11;;;;;;;36.70;24.17;;;;;;;;;;5028177;28;20699;-74
2020/12/07 10:54:36;;;;;;;37.43;26.13;;;;;;;;;;5028376;28;20992;-74
2020/12/07 10:57:01;;;;;;;35.47;24.77;;;;;;;;;;5022217;28;20185;-74
2020/12/07 10:59:26;;;;;;;38.93;27.50;;;;;;;;;;5026246;28;20679;-74
2020/12/07 11:01:53;;;;;;;37.80;26.57;;;;;;;;;;5027162;28;20213;-74
2020/12/07 11:04:18;;;;;;;35.97;23.53;;;;;;;;;;5030983;28;20178;-74
2020/12/07 11:06:45;;;;;;;36.93;25.93;;;;;;;;;;5035499;28;20517;-74
2020/12/07 11:09:11;;;;;;;40.77;25.87;;;;;;;;;;5027261;28;20614;-73
2020/12/07 11:11:37;;;;;;;39.00;25.60;;;;;;;;;;5035455;28;20181;-74
2020/12/07 11:14:02;;;;;;;39.13;25.97;;;;;;;;;;5032116;28;20191;-73
2020/12/07 11:16:28;;;;;;;41.77;27.50;;;;;;;;;;5029679;28;20182;-75
2020/12/07 11:18:53;;;;;;;42.73;26.97;;;;;;;;;;5033529;28;20229;-74
2020/12/07 11:21:19;;;;;;;40.57;27.43;;;;;;;;;;5031161;28;20186;-74
2020/12/07 11:23:46;;;;;;;37.90;27.07;;;;;;;;;;5031910;28;20194;-74
2020/12/07 11:26:12;;;;;;;53.20;28.23;;;;;;;;;;5032918;28;20201;-74
2020/12/07 11:28:38;;;;;;;53.40;31.07;;;;;;;;;;5029482;28;20228;-74
2020/12/07 11:31:04;;;;;;;41.80;27.67;;;;;;;;;;5031510;28;20238;-74
2020/12/07 11:33:29;;;;;;;41.57;26.37;;;;;;;;;;5031931;28;20202;-75
2020/12/07 11:35:55;;;;;;;42.37;26.97;;;;;;;;;;5031860;28;20186;-74
2020/12/07 11:38:23;;;;;;;37.23;26.93;;;;;;;;;;5031059;28;20202;-74
2020/12/07 11:46:06;;;;;;;45.60;28.23;;;;;;;;;;5031366;28;20272;-74
2020/12/07 11:48:31;;;;;;;43.03;28.87;;;;;;;;;;5037444;28;20925;-74
2020/12/07 11:50:57;;;;;;;49.10;30.57;;;;;;;;;;5030698;28;20183;-74
2020/12/07 11:53:22;;;;;;;48.47;32.17;;;;;;;;;;5032519;28;20209;-74
2020/12/07 11:55:47;;;;;;;46.97;30.07;;;;;;;;;;5031444;28;20197;-74
2020/12/07 11:58:12;;;;;;;48.37;31.23;;;;;;;;;;5033827;28;20185;-74
2020/12/07 12:00:38;;;;;;;45.20;29.30;;;;;;;;;;5031334;28;20197;-74
2020/12/07 12:03:03;;;;;;;48.30;29.80;;;;;;;;;;5034092;28;20198;-74
2020/12/07 12:05:28;;;;;;;44.17;27.63;;;;;;;;;;5033049;28;20174;-74
2020/12/07 12:07:53;;;;;;;47.63;30.73;;;;;;;;;;5040015;28;20186;-74
2020/12/07 12:10:18;;;;;;;47.73;28.67;;;;;;;;;;5041628;28;20193;-74
2020/12/07 12:12:44;;;;;;;47.33;29.60;;;;;;;;;;5050715;28;20213;-74
2020/12/07 12:15:09;;;;;;;45.60;28.80;;;;;;;;;;5045929;28;20204;-74
2020/12/07 12:17:34;;;;;;;46.97;30.63;;;;;;;;;;5047013;28;20186;-74
2020/12/07 12:19:59;;;;;;;44.57;29.07;;;;;;;;;;5048273;28;20216;-74
2020/12/07 12:22:24;;;;;;;49.70;29.17;;;;;;;;;;5042866;28;20229;-74
2020/12/07 12:24:49;;;;;;;46.70;29.37;;;;;;;;;;5032370;28;20185;-74
2020/12/07 12:27:15;;;;;;;47.40;29.40;;;;;;;;;;5032532;28;20189;-73
2020/12/07 12:29:40;;;;;;;47.50;30.10;;;;;;;;;;5031595;28;20268;-74
2020/12/07 12:32:05;;;;;;;47.27;29.73;;;;;;;;;;5051501;28;20206;-74
2020/12/07 12:34:30;;;;;;;49.80;30.27;;;;;;;;;;5031563;28;20186;-74
2020/12/07 12:36:55;;;;;;;49.60;29.00;;;;;;;;;;5029451;28;20182;-74
2020/12/07 12:39:21;;;;;;;48.23;29.43;;;;;;;;;;5030392;28;20772;-74
2020/12/07 12:41:47;;;;;;;46.37;27.77;;;;;;;;;;5027948;28;20184;-74
2020/12/07 12:44:12;;;;;;;46.83;28.57;;;;;;;;;;5028946;28;20211;-74
2020/12/07 12:46:37;;;;;;;47.30;28.10;;;;;;;;;;5026373;28;20285;-74
2020/12/07 12:49:03;;;;;;;44.83;28.17;;;;;;;;;;5028850;28;20193;-74
2020/12/07 12:51:28;;;;;;;45.73;29.50;;;;;;;;;;5030162;28;20284;-74
2020/12/07 12:53:54;;;;;;;44.40;29.07;;;;;;;;;;5029202;28;20202;-73
2020/12/07 12:56:20;;;;;;;51.13;30.93;;;;;;;;;;5030171;28;20832;-74
2020/12/07 12:58:47;;;;;;;48.40;29.27;;;;;;;;;;5031963;28;20197;-72
2020/12/07 13:01:12;;;;;;;46.63;29.93;;;;;;;;;;5030006;28;20740;-74
2020/12/07 13:03:37;;;;;;;50.07;32.00;;;;;;;;;;5030639;28;20356;-74
2020/12/07 13:06:03;;;;;;;51.53;30.90;;;;;;;;;;5034057;28;20179;-74
2020/12/07 13:08:28;;;;;;;49.07;30.07;;;;;;;;;;5031856;28;20178;-72
2020/12/07 13:10:53;;;;;;;48.73;30.17;;;;;;;;;;5030765;28;20185;-74
2020/12/07 13:13:18;;;;;;;48.23;29.97;;;;;;;;;;5027676;28;20739;-74
2020/12/07 13:15:52;;;;;;;48.23;30.07;;;;;;;;;;5025508;28;20231;-74
2020/12/07 13:18:17;;;;;;;53.10;31.77;;;;;;;;;;5028104;28;20206;-76
2020/12/07 13:20:51;;;;;;;53.43;29.87;;;;;;;;;;5025493;28;20213;-75
2020/12/07 13:23:25;;;;;;;49.23;29.77;;;;;;;;;;5029905;28;20317;-74
2020/12/07 13:26:05;;;;;;;46.67;28.67;;;;;;;;;;5029438;28;20656;-74
2020/12/07 13:28:30;;;;;;;48.43;30.27;;;;;;;;;;5031958;28;20557;-74
2020/12/07 13:30:55;;;;;;;46.97;30.33;;;;;;;;;;5029564;28;20193;-74
2020/12/07 13:33:20;;;;;;;50.80;31.37;;;;;;;;;;5030410;28;20671;-75
2020/12/07 13:35:45;;;;;;;49.40;29.50;;;;;;;;;;5030306;28;20219;-74
2020/12/07 13:38:11;;;;;;;53.27;31.97;;;;;;;;;;5032343;28;20532;-74
2020/12/07 13:40:36;;;;;;;51.83;30.47;;;;;;;;;;5031005;28;20205;-74
2020/12/07 13:43:02;;;;;;;49.77;30.33;;;;;;;;;;5029611;28;20263;-74
2020/12/07 13:45:28;;;;;;;54.20;32.40;;;;;;;;;;5029125;28;20238;-74
2020/12/07 13:47:53;;;;;;;57.20;33.60;;;;;;;;;;5031641;28;20185;-74
2020/12/07 13:50:19;;;;;;;57.67;34.57;;;;;;;;;;5029870;28;20643;-74
2020/12/07 13:52:44;;;;;;;62.50;34.57;;;;;;;;;;5032833;28;20197;-72
2020/12/07 13:55:09;;;;;;;58.73;35.20;;;;;;;;;;5028217;28;20182;-74
2020/12/07 13:57:34;;;;;;;59.53;35.30;;;;;;;;;;5031462;28;20312;-74
2020/12/07 13:59:59;;;;;;;59.73;33.90;;;;;;;;;;5027317;28;20217;-74
2020/12/07 14:02:25;;;;;;;65.77;35.80;;;;;;;;;;5029588;28;20296;-74
2020/12/07 14:05:09;;;;;;;61.77;34.80;;;;;;;;;;5030439;28;20231;-72
2020/12/07 14:07:34;;;;;;;60.40;34.57;;;;;;;;;;5047449;28;20182;-72
2020/12/07 14:10:00;;;;;;;61.67;34.40;;;;;;;;;;5027992;28;20230;-75
2020/12/07 14:12:25;;;;;;;70.50;35.40;;;;;;;;;;5032707;28;20217;-73
2020/12/07 14:14:50;;;;;;;62.30;35.27;;;;;;;;;;5028520;28;20255;-73
2020/12/07 14:17:19;;;;;;;68.13;36.57;;;;;;;;;;5030758;28;20178;-73
2020/12/07 14:19:49;;;;;;;71.50;37.10;;;;;;;;;;5023411;28;20297;-73
2020/12/07 14:25:05;;;;;;;80.65;40.03;;;;;;;;;;5032415;28;20186;-73
2020/12/07 14:41:01;;;;;;;79.33;39.03;;;;;;;;;;5039497;28;20335;-73
2020/12/07 14:43:26;;;;;;;73.00;38.30;;;;;;;;;;5048986;28;20204;-73
2020/12/07 14:46:13;;;;;;;74.83;39.67;;;;;;;;;;5038264;28;20167;-73
2020/12/07 14:48:39;;;;;;;77.50;37.10;;;;;;;;;;5044889;28;20704;-73
2020/12/07 14:51:15;;;;;;;75.70;40.50;;;;;;;;;;5045956;28;20166;-73
2020/12/07 14:53:40;;;;;;;77.27;40.60;;;;;;;;;;5044698;28;20697;-73
2020/12/07 15:06:25;;;;;;;79.13;38.97;;;;;;;;;;5047693;28;20219;-73
2020/12/07 15:09:39;;;;;;;73.00;39.43;;;;;;;;;;5045114;28;20177;-73
2020/12/07 15:14:41;;;;;;;67.17;36.30;;;;;;;;;;5033774;28;20193;-73